sensor_id;sensor_type;location;lat;lon;timestamp;noise_LAeq;noise_LA_min;noise_LA_max;noise_LA01;noise_LA95
58303;Laerm;44109;52.398;7.024;2023-04-07T00:00:31;45.98;30.93;68.44;;
58303;Laerm;44109;52.398;7.024;2023-04-07T00:02:59;45.66;31.14;58.72;;
58303;Laerm;44109;52.398;7.024;2023-04-07T00:05:27;45.57;30.83;57.09;;
58303;Laerm;44109;52.398;7.024;2023-04-07T00:07:55;45.61;30.98;57.21;;
58303;Laerm;44109;52.398;7.024;2023-04-07T00:10:24;45.53;30.96;57.18;;
58303;Laerm;44109;52.398;7.024;2023-04-07T00:12:52;45.86;31.15;57.27;;
58303;Laerm;44109;52.398;7.024;2023-04-07T00:15:19;46.57;30.82;56.93;;
58303;Laerm;44109;52.398;7.024;2023-04-07T00:17:47;45.65;30.79;56.39;;
58303;Laerm;44109;52.398;7.024;2023-04-07T00:20:15;45.87;31.10;65.72;;
58303;Laerm;44109;52.398;7.024;2023-04-07T00:22:43;45.61;30.86;57.01;;
58303;Laerm;44109;52.398;7.024;2023-04-07T00:25:10;45.93;31.16;57.22;;
58303;Laerm;44109;52.398;7.024;2023-04-07T00:27:39;45.77;30.73;56.83;;
58303;Laerm;44109;52.398;7.024;2023-04-07T00:30:08;45.49;30.73;57.19;;
58303;Laerm;44109;52.398;7.024;2023-04-07T00:32:35;45.66;30.84;59.27;;
58303;Laerm;44109;52.398;7.024;2023-04-07T00:35:04;45.57;30.89;57.14;;
58303;Laerm;44109;52.398;7.024;2023-04-07T00:37:32;45.94;31.22;57.21;;
58303;Laerm;44109;52.398;7.024;2023-04-07T00:39:59;45.91;31.70;57.16;;
58303;Laerm;44109;52.398;7.024;2023-04-07T00:42:27;45.89;31.83;57.19;;
58303;Laerm;44109;52.398;7.024;2023-04-07T00:44:56;45.67;31.07;56.73;;
58303;Laerm;44109;52.398;7.024;2023-04-07T00:47:24;45.57;30.98;58.76;;
58303;Laerm;44109;52.398;7.024;2023-04-07T00:49:51;46.14;31.42;71.59;;
58303;Laerm;44109;52.398;7.024;2023-04-07T00:52:19;45.72;31.26;57.67;;
58303;Laerm;44109;52.398;7.024;2023-04-07T00:54:53;45.20;31.06;57.22;;
58303;Laerm;44109;52.398;7.024;2023-04-07T00:57:21;45.51;31.38;56.68;;
58303;Laerm;44109;52.398;7.024;2023-04-07T00:59:51;45.66;31.02;57.24;;
58303;Laerm;44109;52.398;7.024;2023-04-07T01:02:30;45.39;30.50;57.05;;
58303;Laerm;44109;52.398;7.024;2023-04-07T01:05:11;46.45;30.85;75.65;;
58303;Laerm;44109;52.398;7.024;2023-04-07T01:07:50;45.46;30.96;56.96;;
58303;Laerm;44109;52.398;7.024;2023-04-07T01:10:26;45.27;31.09;57.37;;
58303;Laerm;44109;52.398;7.024;2023-04-07T01:13:02;45.67;30.89;56.88;;
58303;Laerm;44109;52.398;7.024;2023-04-07T01:15:34;45.42;30.53;57.24;;
58303;Laerm;44109;52.398;7.024;2023-04-07T01:18:11;45.65;30.84;57.32;;
58303;Laerm;44109;52.398;7.024;2023-04-07T01:20:42;46.36;31.07;57.27;;
58303;Laerm;44109;52.398;7.024;2023-04-07T01:23:16;45.82;31.42;57.17;;
58303;Laerm;44109;52.398;7.024;2023-04-07T01:26:03;45.22;30.87;57.24;;
58303;Laerm;44109;52.398;7.024;2023-04-07T01:28:56;44.90;30.99;57.02;;
58303;Laerm;44109;52.398;7.024;2023-04-07T01:31:33;45.25;31.06;57.23;;
58303;Laerm;44109;52.398;7.024;2023-04-07T01:34:03;45.57;30.86;67.46;;
58303;Laerm;44109;52.398;7.024;2023-04-07T01:36:32;45.64;30.91;57.19;;
58303;Laerm;44109;52.398;7.024;2023-04-07T01:39:01;45.59;30.65;57.23;;
58303;Laerm;44109;52.398;7.024;2023-04-07T01:41:30;45.61;30.44;61.93;;
58303;Laerm;44109;52.398;7.024;2023-04-07T01:44:01;45.55;30.85;56.66;;
58303;Laerm;44109;52.398;7.024;2023-04-07T01:46:29;45.51;30.71;56.79;;
58303;Laerm;44109;52.398;7.024;2023-04-07T01:48:59;45.48;30.95;57.22;;
58303;Laerm;44109;52.398;7.024;2023-04-07T01:51:29;45.51;30.55;57.03;;
58303;Laerm;44109;52.398;7.024;2023-04-07T01:54:00;45.58;30.74;56.88;;
58303;Laerm;44109;52.398;7.024;2023-04-07T01:56:28;45.65;30.83;57.46;;
58303;Laerm;44109;52.398;7.024;2023-04-07T01:58:56;45.66;30.70;57.22;;
58303;Laerm;44109;52.398;7.024;2023-04-07T02:01:24;46.06;30.78;57.20;;
58303;Laerm;44109;52.398;7.024;2023-04-07T02:03:56;45.68;30.43;68.49;;
58303;Laerm;44109;52.398;7.024;2023-04-07T02:06:34;45.42;30.62;57.33;;
58303;Laerm;44109;52.398;7.024;2023-04-07T02:09:10;45.48;30.64;57.11;;
58303;Laerm;44109;52.398;7.024;2023-04-07T02:11:43;45.46;30.85;57.06;;
58303;Laerm;44109;52.398;7.024;2023-04-07T02:14:13;45.56;30.69;57.47;;
58303;Laerm;44109;52.398;7.024;2023-04-07T02:16:44;45.48;30.78;56.73;;
58303;Laerm;44109;52.398;7.024;2023-04-07T02:19:12;45.75;31.02;57.33;;
58303;Laerm;44109;52.398;7.024;2023-04-07T02:21:44;45.67;30.86;57.42;;
58303;Laerm;44109;52.398;7.024;2023-04-07T02:24:12;46.95;31.61;57.27;;
58303;Laerm;44109;52.398;7.024;2023-04-07T02:26:42;45.85;30.82;57.22;;
58303;Laerm;44109;52.398;7.024;2023-04-07T02:29:09;45.61;30.65;57.41;;
58303;Laerm;44109;52.398;7.024;2023-04-07T02:31:37;45.75;30.79;57.40;;
58303;Laerm;44109;52.398;7.024;2023-04-07T02:34:05;45.70;30.95;57.24;;
58303;Laerm;44109;52.398;7.024;2023-04-07T02:36:32;45.95;30.65;57.35;;
58303;Laerm;44109;52.398;7.024;2023-04-07T02:39:01;47.68;31.09;78.49;;
58303;Laerm;44109;52.398;7.024;2023-04-07T02:41:29;45.83;30.79;57.25;;
58303;Laerm;44109;52.398;7.024;2023-04-07T02:43:56;46.12;30.70;57.12;;
58303;Laerm;44109;52.398;7.024;2023-04-07T02:46:24;45.68;30.48;57.03;;
58303;Laerm;44109;52.398;7.024;2023-04-07T02:48:52;46.22;30.33;61.17;;
58303;Laerm;44109;52.398;7.024;2023-04-07T02:51:19;45.64;30.53;57.34;;
58303;Laerm;44109;52.398;7.024;2023-04-07T02:53:47;45.90;30.71;57.28;;
58303;Laerm;44109;52.398;7.024;2023-04-07T02:56:16;45.77;30.93;56.87;;
58303;Laerm;44109;52.398;7.024;2023-04-07T02:58:43;45.96;30.85;56.74;;
58303;Laerm;44109;52.398;7.024;2023-04-07T03:01:11;46.22;30.59;60.20;;
58303;Laerm;44109;52.398;7.024;2023-04-07T03:03:39;49.62;31.62;60.22;;
58303;Laerm;44109;52.398;7.024;2023-04-07T03:06:07;46.69;31.24;57.41;;
58303;Laerm;44109;52.398;7.024;2023-04-07T03:08:35;46.25;31.02;66.35;;
58303;Laerm;44109;52.398;7.024;2023-04-07T03:11:02;46.24;31.07;57.46;;
58303;Laerm;44109;52.398;7.024;2023-04-07T03:13:31;45.72;30.60;57.35;;
58303;Laerm;44109;52.398;7.024;2023-04-07T03:15:59;45.82;31.31;57.13;;
58303;Laerm;44109;52.398;7.024;2023-04-07T03:18:26;45.80;31.09;57.28;;
58303;Laerm;44109;52.398;7.024;2023-04-07T03:20:54;54.32;31.27;84.75;;
58303;Laerm;44109;52.398;7.024;2023-04-07T03:23:22;46.74;32.70;61.37;;
58303;Laerm;44109;52.398;7.024;2023-04-07T03:25:49;45.66;30.95;56.48;;
58303;Laerm;44109;52.398;7.024;2023-04-07T03:28:17;46.14;31.78;57.23;;
58303;Laerm;44109;52.398;7.024;2023-04-07T03:30:46;46.46;31.09;57.36;;
58303;Laerm;44109;52.398;7.024;2023-04-07T03:33:14;46.81;31.84;57.43;;
58303;Laerm;44109;52.398;7.024;2023-04-07T03:35:41;45.82;31.07;57.30;;
58303;Laerm;44109;52.398;7.024;2023-04-07T03:38:09;47.01;31.86;57.77;;
58303;Laerm;44109;52.398;7.024;2023-04-07T03:40:37;48.09;31.89;60.74;;
58303;Laerm;44109;52.398;7.024;2023-04-07T03:43:04;46.21;32.16;59.00;;
58303;Laerm;44109;52.398;7.024;2023-04-07T03:45:37;47.97;31.71;73.76;;
58303;Laerm;44109;52.398;7.024;2023-04-07T03:48:07;47.27;32.20;62.20;;
58303;Laerm;44109;52.398;7.024;2023-04-07T03:50:37;47.76;32.74;66.05;;
58303;Laerm;44109;52.398;7.024;2023-04-07T03:53:05;47.18;32.67;63.69;;
58303;Laerm;44109;52.398;7.024;2023-04-07T03:55:33;48.14;32.90;65.07;;
58303;Laerm;44109;52.398;7.024;2023-04-07T03:58:01;47.74;32.35;64.80;;
58303;Laerm;44109;52.398;7.024;2023-04-07T04:00:29;47.93;32.65;70.06;;
58303;Laerm;44109;52.398;7.024;2023-04-07T04:02:58;50.21;32.89;78.40;;
58303;Laerm;44109;52.398;7.024;2023-04-07T04:05:27;50.17;34.87;74.08;;
58303;Laerm;44109;52.398;7.024;2023-04-07T04:07:55;51.18;35.46;74.74;;
58303;Laerm;44109;52.398;7.024;2023-04-07T04:10:23;52.90;35.99;76.73;;
58303;Laerm;44109;52.398;7.024;2023-04-07T04:12:50;53.03;37.25;79.34;;
58303;Laerm;44109;52.398;7.024;2023-04-07T04:15:18;54.43;36.35;79.01;;
58303;Laerm;44109;52.398;7.024;2023-04-07T04:17:46;54.87;36.47;81.33;;
58303;Laerm;44109;52.398;7.024;2023-04-07T04:20:13;57.92;38.22;76.62;;
58303;Laerm;44109;52.398;7.024;2023-04-07T04:22:42;57.43;38.79;73.43;;
58303;Laerm;44109;52.398;7.024;2023-04-07T04:25:10;59.74;38.30;79.35;;
58303;Laerm;44109;52.398;7.024;2023-04-07T04:27:38;58.59;38.65;75.24;;
58303;Laerm;44109;52.398;7.024;2023-04-07T04:30:07;58.22;37.01;80.18;;
58303;Laerm;44109;52.398;7.024;2023-04-07T04:32:35;54.55;37.09;78.30;;
58303;Laerm;44109;52.398;7.024;2023-04-07T04:35:02;55.31;36.94;77.76;;
58303;Laerm;44109;52.398;7.024;2023-04-07T04:37:30;56.79;37.71;78.65;;
58303;Laerm;44109;52.398;7.024;2023-04-07T04:39:59;56.76;37.82;75.02;;
58303;Laerm;44109;52.398;7.024;2023-04-07T04:42:27;56.17;36.53;78.00;;
58303;Laerm;44109;52.398;7.024;2023-04-07T04:44:56;55.59;37.23;82.74;;
58303;Laerm;44109;52.398;7.024;2023-04-07T04:47:24;54.85;36.15;81.48;;
58303;Laerm;44109;52.398;7.024;2023-04-07T04:49:52;57.06;36.97;82.42;;
58303;Laerm;44109;52.398;7.024;2023-04-07T04:52:19;52.30;37.25;75.32;;
58303;Laerm;44109;52.398;7.024;2023-04-07T04:54:47;55.57;36.89;77.28;;
58303;Laerm;44109;52.398;7.024;2023-04-07T04:57:16;55.21;39.15;76.93;;
58303;Laerm;44109;52.398;7.024;2023-04-07T04:59:44;54.44;36.84;83.80;;
58303;Laerm;44109;52.398;7.024;2023-04-07T05:02:11;53.33;36.79;77.76;;
58303;Laerm;44109;52.398;7.024;2023-04-07T05:04:39;54.12;36.39;81.59;;
58303;Laerm;44109;52.398;7.024;2023-04-07T05:07:06;56.27;37.42;84.06;;
58303;Laerm;44109;52.398;7.024;2023-04-07T05:09:34;54.73;37.42;75.36;;
58303;Laerm;44109;52.398;7.024;2023-04-07T05:12:02;54.36;39.66;75.03;;
58303;Laerm;44109;52.398;7.024;2023-04-07T05:14:32;54.95;39.82;78.92;;
58303;Laerm;44109;52.398;7.024;2023-04-07T05:16:59;53.75;38.22;74.72;;
58303;Laerm;44109;52.398;7.024;2023-04-07T05:19:27;54.90;39.13;77.99;;
58303;Laerm;44109;52.398;7.024;2023-04-07T05:21:55;55.31;38.96;76.08;;
58303;Laerm;44109;52.398;7.024;2023-04-07T05:24:23;51.55;38.21;75.56;;
58303;Laerm;44109;52.398;7.024;2023-04-07T05:26:51;50.92;37.86;75.15;;
58303;Laerm;44109;52.398;7.024;2023-04-07T05:29:19;51.40;36.51;75.88;;
58303;Laerm;44109;52.398;7.024;2023-04-07T05:31:48;49.93;36.83;74.19;;
58303;Laerm;44109;52.398;7.024;2023-04-07T05:34:16;50.25;36.33;74.59;;
58303;Laerm;44109;52.398;7.024;2023-04-07T05:36:43;51.50;34.88;82.62;;
58303;Laerm;44109;52.398;7.024;2023-04-07T05:39:11;51.16;36.24;80.42;;
58303;Laerm;44109;52.398;7.024;2023-04-07T05:41:38;49.25;36.82;72.57;;
58303;Laerm;44109;52.398;7.024;2023-04-07T05:44:06;51.22;40.27;77.30;;
58303;Laerm;44109;52.398;7.024;2023-04-07T05:46:34;51.55;37.12;73.28;;
58303;Laerm;44109;52.398;7.024;2023-04-07T05:49:03;52.06;37.84;76.35;;
58303;Laerm;44109;52.398;7.024;2023-04-07T05:51:31;60.74;36.67;81.74;;
58303;Laerm;44109;52.398;7.024;2023-04-07T05:54:01;57.04;39.41;83.79;;
58303;Laerm;44109;52.398;7.024;2023-04-07T05:56:29;55.46;39.71;86.98;;
58303;Laerm;44109;52.398;7.024;2023-04-07T05:58:57;53.48;38.71;77.74;;
58303;Laerm;44109;52.398;7.024;2023-04-07T06:01:27;52.01;38.83;80.26;;
58303;Laerm;44109;52.398;7.024;2023-04-07T06:03:55;56.26;38.92;85.77;;
58303;Laerm;44109;52.398;7.024;2023-04-07T06:06:25;54.97;39.23;81.30;;
58303;Laerm;44109;52.398;7.024;2023-04-07T06:08:53;57.84;38.54;84.41;;
58303;Laerm;44109;52.398;7.024;2023-04-07T06:11:21;59.27;39.96;85.23;;
58303;Laerm;44109;52.398;7.024;2023-04-07T06:13:49;56.95;41.67;79.50;;
58303;Laerm;44109;52.398;7.024;2023-04-07T06:16:16;59.09;41.35;84.59;;
58303;Laerm;44109;52.398;7.024;2023-04-07T06:18:44;58.59;41.62;86.99;;
58303;Laerm;44109;52.398;7.024;2023-04-07T06:21:11;62.90;43.66;92.00;;
58303;Laerm;44109;52.398;7.024;2023-04-07T06:23:40;62.01;43.28;90.21;;
58303;Laerm;44109;52.398;7.024;2023-04-07T06:26:10;61.73;42.98;95.09;;
58303;Laerm;44109;52.398;7.024;2023-04-07T06:28:38;59.42;41.24;85.22;;
58303;Laerm;44109;52.398;7.024;2023-04-07T06:31:07;58.72;42.02;87.22;;
58303;Laerm;44109;52.398;7.024;2023-04-07T06:33:35;59.50;42.49;83.63;;
58303;Laerm;44109;52.398;7.024;2023-04-07T06:36:03;58.97;45.04;87.09;;
58303;Laerm;44109;52.398;7.024;2023-04-07T06:38:30;59.54;46.78;84.86;;
58303;Laerm;44109;52.398;7.024;2023-04-07T06:40:59;57.04;42.76;86.66;;
58303;Laerm;44109;52.398;7.024;2023-04-07T06:43:27;54.39;40.72;78.08;;
58303;Laerm;44109;52.398;7.024;2023-04-07T06:45:55;53.35;39.82;79.10;;
58303;Laerm;44109;52.398;7.024;2023-04-07T06:48:23;53.77;40.90;80.97;;
58303;Laerm;44109;52.398;7.024;2023-04-07T06:50:51;54.43;40.89;81.49;;
58303;Laerm;44109;52.398;7.024;2023-04-07T06:53:18;54.84;41.41;80.74;;
58303;Laerm;44109;52.398;7.024;2023-04-07T06:55:46;60.77;42.41;81.43;;
58303;Laerm;44109;52.398;7.024;2023-04-07T06:58:15;59.71;45.28;84.24;;
58303;Laerm;44109;52.398;7.024;2023-04-07T07:00:43;59.27;42.83;79.01;;
58303;Laerm;44109;52.398;7.024;2023-04-07T07:03:10;55.33;41.51;78.90;;
58303;Laerm;44109;52.398;7.024;2023-04-07T07:05:38;52.18;39.92;75.95;;
58303;Laerm;44109;52.398;7.024;2023-04-07T07:08:06;53.08;42.10;80.34;;
58303;Laerm;44109;52.398;7.024;2023-04-07T07:10:33;51.54;39.92;76.09;;
58303;Laerm;44109;52.398;7.024;2023-04-07T07:13:01;52.60;39.72;84.13;;
58303;Laerm;44109;52.398;7.024;2023-04-07T07:15:30;55.61;42.37;74.76;;
58303;Laerm;44109;52.398;7.024;2023-04-07T07:17:58;59.99;42.27;78.54;;
58303;Laerm;44109;52.398;7.024;2023-04-07T07:20:25;52.62;39.57;75.80;;
58303;Laerm;44109;52.398;7.024;2023-04-07T07:22:53;51.55;42.25;66.87;;
58303;Laerm;44109;52.398;7.024;2023-04-07T07:25:21;53.74;42.38;76.24;;
58303;Laerm;44109;52.398;7.024;2023-04-07T07:27:51;49.86;41.68;70.51;;
58303;Laerm;44109;52.398;7.024;2023-04-07T07:30:20;52.95;41.81;75.00;;
58303;Laerm;44109;52.398;7.024;2023-04-07T07:32:50;53.94;44.04;75.16;;
58303;Laerm;44109;52.398;7.024;2023-04-07T07:35:20;51.00;42.65;68.22;;
58303;Laerm;44109;52.398;7.024;2023-04-07T07:37:48;51.37;41.83;67.76;;
58303;Laerm;44109;52.398;7.024;2023-04-07T07:40:15;51.92;42.81;73.33;;
58303;Laerm;44109;52.398;7.024;2023-04-07T07:42:44;53.43;41.39;74.41;;
58303;Laerm;44109;52.398;7.024;2023-04-07T07:45:11;52.54;41.07;72.81;;
58303;Laerm;44109;52.398;7.024;2023-04-07T07:47:39;52.11;42.20;77.81;;
58303;Laerm;44109;52.398;7.024;2023-04-07T07:50:09;51.31;40.03;66.79;;
58303;Laerm;44109;52.398;7.024;2023-04-07T07:52:36;52.30;41.28;69.26;;
58303;Laerm;44109;52.398;7.024;2023-04-07T07:55:04;52.04;41.19;66.01;;
58303;Laerm;44109;52.398;7.024;2023-04-07T07:57:32;54.17;40.40;74.68;;
58303;Laerm;44109;52.398;7.024;2023-04-07T08:00:00;54.26;40.75;68.92;;
58303;Laerm;44109;52.398;7.024;2023-04-07T08:02:28;52.66;42.57;68.75;;
58303;Laerm;44109;52.398;7.024;2023-04-07T08:04:56;51.91;42.70;69.67;;
58303;Laerm;44109;52.398;7.024;2023-04-07T08:07:26;51.01;41.62;68.46;;
58303;Laerm;44109;52.398;7.024;2023-04-07T08:09:53;51.00;40.54;71.04;;
58303;Laerm;44109;52.398;7.024;2023-04-07T08:12:21;51.33;39.59;74.58;;
58303;Laerm;44109;52.398;7.024;2023-04-07T08:14:49;51.08;41.41;70.32;;
58303;Laerm;44109;52.398;7.024;2023-04-07T08:17:16;52.11;43.70;65.33;;
58303;Laerm;44109;52.398;7.024;2023-04-07T08:19:44;51.49;43.49;64.53;;
58303;Laerm;44109;52.398;7.024;2023-04-07T08:22:12;54.13;43.24;70.41;;
58303;Laerm;44109;52.398;7.024;2023-04-07T08:24:41;51.87;43.05;66.84;;
58303;Laerm;44109;52.398;7.024;2023-04-07T08:27:09;50.90;40.70;67.64;;
58303;Laerm;44109;52.398;7.024;2023-04-07T08:29:36;53.02;40.58;74.66;;
58303;Laerm;44109;52.398;7.024;2023-04-07T08:32:04;51.88;40.90;71.14;;
58303;Laerm;44109;52.398;7.024;2023-04-07T08:34:32;51.68;38.95;67.98;;
58303;Laerm;44109;52.398;7.024;2023-04-07T08:36:59;50.78;41.01;69.25;;
58303;Laerm;44109;52.398;7.024;2023-04-07T08:39:27;49.79;40.03;59.54;;
58303;Laerm;44109;52.398;7.024;2023-04-07T08:41:57;52.81;40.75;74.14;;
58303;Laerm;44109;52.398;7.024;2023-04-07T08:44:27;52.14;42.80;73.13;;
58303;Laerm;44109;52.398;7.024;2023-04-07T08:46:58;53.96;41.99;72.03;;
58303;Laerm;44109;52.398;7.024;2023-04-07T08:49:29;50.83;42.42;67.35;;
58303;Laerm;44109;52.398;7.024;2023-04-07T08:52:02;49.51;39.69;64.59;;
58303;Laerm;44109;52.398;7.024;2023-04-07T08:54:32;51.78;42.40;67.16;;
58303;Laerm;44109;52.398;7.024;2023-04-07T08:57:02;52.31;40.98;70.15;;
58303;Laerm;44109;52.398;7.024;2023-04-07T08:59:31;51.18;42.25;69.66;;
58303;Laerm;44109;52.398;7.024;2023-04-07T09:01:59;50.40;41.37;61.51;;
58303;Laerm;44109;52.398;7.024;2023-04-07T09:04:27;50.93;41.24;70.40;;
58303;Laerm;44109;52.398;7.024;2023-04-07T09:06:54;50.14;42.86;59.47;;
58303;Laerm;44109;52.398;7.024;2023-04-07T09:09:22;52.64;39.73;75.63;;
58303;Laerm;44109;52.398;7.024;2023-04-07T09:11:50;51.64;40.34;71.92;;
58303;Laerm;44109;52.398;7.024;2023-04-07T09:14:20;50.60;41.88;69.50;;
58303;Laerm;44109;52.398;7.024;2023-04-07T09:16:47;50.36;39.41;67.73;;
58303;Laerm;44109;52.398;7.024;2023-04-07T09:19:15;49.65;42.05;67.01;;
58303;Laerm;44109;52.398;7.024;2023-04-07T09:21:48;51.02;42.92;64.46;;
58303;Laerm;44109;52.398;7.024;2023-04-07T09:24:25;52.49;40.77;67.18;;
58303;Laerm;44109;52.398;7.024;2023-04-07T09:27:12;50.38;40.22;68.24;;
58303;Laerm;44109;52.398;7.024;2023-04-07T09:29:43;53.09;42.29;72.17;;
58303;Laerm;44109;52.398;7.024;2023-04-07T09:32:22;51.27;39.86;71.42;;
58303;Laerm;44109;52.398;7.024;2023-04-07T09:35:01;51.34;39.81;76.93;;
58303;Laerm;44109;52.398;7.024;2023-04-07T09:37:28;51.03;39.44;66.57;;
58303;Laerm;44109;52.398;7.024;2023-04-07T09:39:56;51.52;42.03;75.17;;
58303;Laerm;44109;52.398;7.024;2023-04-07T09:42:24;51.23;42.30;74.70;;
58303;Laerm;44109;52.398;7.024;2023-04-07T09:44:53;52.40;42.54;77.14;;
58303;Laerm;44109;52.398;7.024;2023-04-07T09:47:25;51.63;41.65;71.44;;
58303;Laerm;44109;52.398;7.024;2023-04-07T09:49:55;51.83;41.42;68.80;;
58303;Laerm;44109;52.398;7.024;2023-04-07T09:52:48;51.65;40.89;70.97;;
58303;Laerm;44109;52.398;7.024;2023-04-07T09:55:20;52.47;41.70;72.19;;
58303;Laerm;44109;52.398;7.024;2023-04-07T09:57:49;54.49;41.78;74.92;;
58303;Laerm;44109;52.398;7.024;2023-04-07T10:00:18;50.61;41.02;78.23;;
58303;Laerm;44109;52.398;7.024;2023-04-07T10:02:46;50.26;39.84;67.06;;
58303;Laerm;44109;52.398;7.024;2023-04-07T10:05:16;53.20;41.61;79.10;;
58303;Laerm;44109;52.398;7.024;2023-04-07T10:07:47;51.73;40.71;73.12;;
58303;Laerm;44109;52.398;7.024;2023-04-07T10:10:15;52.98;42.37;77.49;;
58303;Laerm;44109;52.398;7.024;2023-04-07T10:12:43;53.49;42.73;75.53;;
58303;Laerm;44109;52.398;7.024;2023-04-07T10:15:12;56.31;43.50;83.65;;
58303;Laerm;44109;52.398;7.024;2023-04-07T10:17:46;55.62;41.76;82.99;;
58303;Laerm;44109;52.398;7.024;2023-04-07T10:20:17;53.87;43.28;74.57;;
58303;Laerm;44109;52.398;7.024;2023-04-07T10:22:48;54.05;41.84;76.06;;
58303;Laerm;44109;52.398;7.024;2023-04-07T10:25:20;55.30;41.92;74.10;;
58303;Laerm;44109;52.398;7.024;2023-04-07T10:27:55;54.09;42.53;75.44;;
58303;Laerm;44109;52.398;7.024;2023-04-07T10:30:29;54.49;41.48;78.01;;
58303;Laerm;44109;52.398;7.024;2023-04-07T10:32:59;60.09;42.64;88.23;;
58303;Laerm;44109;52.398;7.024;2023-04-07T10:35:27;61.83;45.33;86.50;;
58303;Laerm;44109;52.398;7.024;2023-04-07T10:38:12;61.99;46.37;87.42;;
58303;Laerm;44109;52.398;7.024;2023-04-07T10:40:42;57.87;43.70;81.49;;
58303;Laerm;44109;52.398;7.024;2023-04-07T10:43:10;55.31;43.19;77.70;;
58303;Laerm;44109;52.398;7.024;2023-04-07T10:45:53;54.21;41.06;76.01;;
58303;Laerm;44109;52.398;7.024;2023-04-07T10:48:23;51.82;41.57;73.00;;
58303;Laerm;44109;52.398;7.024;2023-04-07T10:51:14;50.74;38.79;74.25;;
58303;Laerm;44109;52.398;7.024;2023-04-07T10:54:18;50.56;40.44;65.54;;
58303;Laerm;44109;52.398;7.024;2023-04-07T10:57:13;49.90;39.57;68.89;;
58303;Laerm;44109;52.398;7.024;2023-04-07T11:00:15;50.07;41.60;64.64;;
58303;Laerm;44109;52.398;7.024;2023-04-07T11:02:43;50.63;40.45;71.68;;
58303;Laerm;44109;52.398;7.024;2023-04-07T11:05:22;50.76;39.95;68.29;;
58303;Laerm;44109;52.398;7.024;2023-04-07T11:07:52;50.20;40.62;62.80;;
58303;Laerm;44109;52.398;7.024;2023-04-07T11:10:24;51.35;40.39;66.80;;
58303;Laerm;44109;52.398;7.024;2023-04-07T11:13:00;52.81;42.22;68.55;;
58303;Laerm;44109;52.398;7.024;2023-04-07T11:15:28;49.56;40.14;64.90;;
58303;Laerm;44109;52.398;7.024;2023-04-07T11:18:16;50.74;40.10;68.95;;
58303;Laerm;44109;52.398;7.024;2023-04-07T11:20:49;48.86;39.91;59.96;;
58303;Laerm;44109;52.398;7.024;2023-04-07T11:23:19;50.30;41.34;63.53;;
58303;Laerm;44109;52.398;7.024;2023-04-07T11:25:50;50.70;39.74;63.93;;
58303;Laerm;44109;52.398;7.024;2023-04-07T11:28:18;50.31;41.53;63.15;;
58303;Laerm;44109;52.398;7.024;2023-04-07T11:30:49;51.20;40.49;63.08;;
58303;Laerm;44109;52.398;7.024;2023-04-07T11:33:19;50.98;41.90;65.71;;
58303;Laerm;44109;52.398;7.024;2023-04-07T11:35:52;51.58;43.32;64.36;;
58303;Laerm;44109;52.398;7.024;2023-04-07T11:38:22;51.12;42.28;60.36;;
58303;Laerm;44109;52.398;7.024;2023-04-07T11:40:50;50.92;39.56;65.16;;
58303;Laerm;44109;52.398;7.024;2023-04-07T11:43:20;54.02;41.41;72.35;;
58303;Laerm;44109;52.398;7.024;2023-04-07T11:46:09;49.59;41.50;62.09;;
58303;Laerm;44109;52.398;7.024;2023-04-07T11:48:39;48.96;40.03;60.11;;
58303;Laerm;44109;52.398;7.024;2023-04-07T11:51:17;48.96;39.79;61.53;;
58303;Laerm;44109;52.398;7.024;2023-04-07T11:53:46;49.88;39.21;66.76;;
58303;Laerm;44109;52.398;7.024;2023-04-07T11:56:15;51.53;40.36;65.51;;
58303;Laerm;44109;52.398;7.024;2023-04-07T11:58:47;50.93;41.08;64.83;;
58303;Laerm;44109;52.398;7.024;2023-04-07T12:01:15;53.18;40.81;73.71;;
58303;Laerm;44109;52.398;7.024;2023-04-07T12:03:57;52.71;40.66;71.45;;
58303;Laerm;44109;52.398;7.024;2023-04-07T12:06:31;60.03;40.07;84.13;;
58303;Laerm;44109;52.398;7.024;2023-04-07T12:09:00;50.27;39.05;71.56;;
58303;Laerm;44109;52.398;7.024;2023-04-07T12:11:28;51.77;39.66;74.33;;
58303;Laerm;44109;52.398;7.024;2023-04-07T12:13:57;52.59;40.34;74.85;;
58303;Laerm;44109;52.398;7.024;2023-04-07T12:16:24;51.66;40.06;72.71;;
58303;Laerm;44109;52.398;7.024;2023-04-07T12:18:52;54.73;39.65;76.48;;
58303;Laerm;44109;52.398;7.024;2023-04-07T12:21:20;52.34;42.05;70.66;;
58303;Laerm;44109;52.398;7.024;2023-04-07T12:23:49;51.90;39.59;66.97;;
58303;Laerm;44109;52.398;7.024;2023-04-07T12:26:17;52.08;38.79;74.66;;
58303;Laerm;44109;52.398;7.024;2023-04-07T12:28:44;53.58;41.79;74.26;;
58303;Laerm;44109;52.398;7.024;2023-04-07T12:31:12;50.60;39.45;61.11;;
58303;Laerm;44109;52.398;7.024;2023-04-07T12:33:39;50.46;40.83;61.79;;
58303;Laerm;44109;52.398;7.024;2023-04-07T12:36:07;49.85;38.75;62.00;;
58303;Laerm;44109;52.398;7.024;2023-04-07T12:38:35;49.19;38.73;58.39;;
58303;Laerm;44109;52.398;7.024;2023-04-07T12:41:04;55.78;39.74;75.41;;
58303;Laerm;44109;52.398;7.024;2023-04-07T12:43:32;52.15;41.01;64.29;;
58303;Laerm;44109;52.398;7.024;2023-04-07T12:45:59;50.90;37.59;74.99;;
58303;Laerm;44109;52.398;7.024;2023-04-07T12:48:27;50.85;38.08;66.39;;
58303;Laerm;44109;52.398;7.024;2023-04-07T12:50:54;51.51;37.95;63.66;;
58303;Laerm;44109;52.398;7.024;2023-04-07T12:53:22;50.52;40.04;62.70;;
58303;Laerm;44109;52.398;7.024;2023-04-07T12:55:50;51.71;38.16;64.16;;
58303;Laerm;44109;52.398;7.024;2023-04-07T12:58:19;51.90;37.14;65.44;;
58303;Laerm;44109;52.398;7.024;2023-04-07T13:00:46;53.77;39.14;69.45;;
58303;Laerm;44109;52.398;7.024;2023-04-07T13:03:14;55.18;39.83;70.82;;
58303;Laerm;44109;52.398;7.024;2023-04-07T13:05:41;52.33;38.71;72.88;;
58303;Laerm;44109;52.398;7.024;2023-04-07T13:08:09;50.41;39.35;63.59;;
58303;Laerm;44109;52.398;7.024;2023-04-07T13:10:37;53.78;39.36;71.82;;
58303;Laerm;44109;52.398;7.024;2023-04-07T13:13:05;53.57;39.58;67.10;;
58303;Laerm;44109;52.398;7.024;2023-04-07T13:15:34;52.45;41.16;66.82;;
58303;Laerm;44109;52.398;7.024;2023-04-07T13:18:01;53.92;39.99;68.34;;
58303;Laerm;44109;52.398;7.024;2023-04-07T13:20:29;53.38;39.26;69.03;;
58303;Laerm;44109;52.398;7.024;2023-04-07T13:22:56;52.28;40.59;73.76;;
58303;Laerm;44109;52.398;7.024;2023-04-07T13:25:24;51.30;40.82;62.48;;
58303;Laerm;44109;52.398;7.024;2023-04-07T13:27:51;52.88;41.80;68.52;;
58303;Laerm;44109;52.398;7.024;2023-04-07T13:30:19;51.47;39.28;65.38;;
58303;Laerm;44109;52.398;7.024;2023-04-07T13:32:48;51.52;38.22;67.56;;
58303;Laerm;44109;52.398;7.024;2023-04-07T13:35:16;51.67;38.49;66.67;;
58303;Laerm;44109;52.398;7.024;2023-04-07T13:37:44;55.78;39.61;75.05;;
58303;Laerm;44109;52.398;7.024;2023-04-07T13:40:12;56.10;40.03;71.60;;
58303;Laerm;44109;52.398;7.024;2023-04-07T13:42:39;53.94;39.30;73.66;;
58303;Laerm;44109;52.398;7.024;2023-04-07T13:45:08;51.18;39.25;67.69;;
58303;Laerm;44109;52.398;7.024;2023-04-07T13:47:36;50.81;38.24;67.46;;
58303;Laerm;44109;52.398;7.024;2023-04-07T13:50:06;53.84;37.89;82.45;;
58303;Laerm;44109;52.398;7.024;2023-04-07T13:52:34;52.22;38.23;70.10;;
58303;Laerm;44109;52.398;7.024;2023-04-07T13:55:01;50.47;38.06;67.87;;
58303;Laerm;44109;52.398;7.024;2023-04-07T13:57:30;50.48;37.47;69.65;;